Harpersville, Alabama
Current Conditions -  °F | °C
As of 6:35 PM on Thursday 27 Nov 2014 (Local Time) from KSCD Reporting Station
Clear Clear  
Wind Chill: 38°   Ceiling: Unl
Heat Index: 38°   Visibility: 10mi
Dew Point: 28°   Wind: 0mph
Humidity: 67%   Direction: NA
Pressure: 30.42"   Gusts: NA
Location:  33.34°N, 86.44°W
Report Text: KSCD 280035Z AUTO 00000KT 10SM CLR 04/M02 A3042 RMK AO2 T00361020
Loading
Personal Weather Stations






























Interactive Weather Map New forecast layout! Learn more

10-Day Weather Forecast

Advertisements
Track Severe Weather on mobile